createdAt,value
2019-02-21T00:00:24.266Z,11.13
2019-02-21T00:02:54.634Z,10.43
2019-02-21T00:05:27.983Z,10.80
2019-02-21T00:07:58.376Z,11.00
2019-02-21T00:10:31.738Z,10.90
2019-02-21T00:13:02.588Z,10.33
2019-02-21T00:15:33.042Z,10.87
2019-02-21T00:18:03.931Z,10.77
2019-02-21T00:20:34.700Z,10.97
2019-02-21T00:23:05.532Z,10.50
2019-02-21T00:25:40.270Z,10.77
2019-02-21T00:28:11.310Z,10.70
2019-02-21T00:30:42.054Z,10.80
2019-02-21T00:33:13.539Z,10.90
2019-02-21T00:35:45.855Z,10.27
2019-02-21T00:38:17.010Z,10.50
2019-02-21T00:40:47.852Z,14.77
2019-02-21T00:43:20.405Z,12.23
2019-02-21T00:45:51.261Z,8.97
2019-02-21T00:48:22.174Z,9.57
2019-02-21T00:50:52.905Z,9.37
2019-02-21T00:53:23.655Z,9.30
2019-02-21T00:55:54.470Z,9.67
2019-02-21T00:58:26.810Z,9.90
2019-02-21T01:00:57.594Z,9.60
2019-02-21T01:03:28.352Z,9.60
2019-02-21T01:05:58.808Z,9.97
2019-02-21T01:08:29.473Z,9.60
2019-02-21T01:11:00.336Z,9.40
2019-02-21T01:13:31.167Z,9.70
2019-02-21T01:16:02.327Z,9.87
2019-02-21T01:18:33.137Z,9.40
2019-02-21T01:21:03.857Z,9.20
2019-02-21T01:23:34.282Z,9.03
2019-02-21T01:26:05.036Z,8.87
2019-02-21T01:28:35.768Z,8.93
2019-02-21T01:31:06.936Z,9.50
2019-02-21T01:33:37.850Z,9.83
2019-02-21T01:36:08.567Z,9.63
2019-02-21T01:38:41.693Z,9.40
2019-02-21T01:41:12.729Z,12.17
2019-02-21T01:43:43.520Z,11.03
2019-02-21T01:46:14.406Z,9.43
2019-02-21T01:48:45.342Z,9.53
2019-02-21T01:51:16.281Z,9.07
2019-02-21T01:53:46.766Z,9.17
2019-02-21T01:56:17.624Z,9.10
2019-02-21T01:58:48.191Z,8.97
2019-02-21T02:01:18.988Z,8.60
2019-02-21T02:03:50.340Z,9.20
2019-02-21T02:06:21.080Z,9.20
2019-02-21T02:08:51.936Z,9.63
2019-02-21T02:11:22.755Z,9.13
2019-02-21T02:13:56.500Z,9.27
2019-02-21T02:16:27.184Z,9.77
2019-02-21T02:18:58.017Z,10.17
2019-02-21T02:21:28.764Z,11.50
2019-02-21T02:23:59.587Z,11.53
2019-02-21T02:26:30.437Z,11.80
2019-02-21T02:29:02.895Z,12.17
2019-02-21T02:31:33.735Z,12.20
2019-02-21T02:34:04.575Z,13.40
2019-02-21T02:36:35.412Z,12.67
2019-02-21T02:39:06.566Z,13.23
2019-02-21T02:41:37.509Z,13.83
2019-02-21T02:44:08.326Z,13.37
2019-02-21T02:46:39.187Z,13.60
2019-02-21T02:49:09.941Z,14.40
2019-02-21T02:51:40.747Z,15.60
2019-02-21T02:54:11.596Z,16.87
2019-02-21T02:56:42.450Z,15.47
2019-02-21T02:59:13.469Z,15.30
2019-02-21T03:01:44.305Z,15.37
2019-02-21T03:04:15.284Z,15.13
2019-02-21T03:06:46.079Z,16.40
2019-02-21T03:09:16.916Z,16.07
2019-02-21T03:11:49.435Z,15.90
2019-02-21T03:14:20.532Z,15.83
2019-02-21T03:16:51.481Z,16.47
2019-02-21T03:19:22.103Z,16.90
2019-02-21T03:21:55.608Z,16.60
2019-02-21T03:24:26.527Z,16.07
2019-02-21T03:26:57.269Z,16.83
2019-02-21T03:29:28.109Z,16.83
2019-02-21T03:31:58.688Z,17.63
2019-02-21T03:34:29.469Z,17.43
2019-02-21T03:37:01.755Z,17.67
2019-02-21T03:39:32.197Z,18.23
2019-02-21T03:42:03.190Z,17.17
2019-02-21T03:44:33.725Z,17.33
2019-02-21T03:47:06.202Z,18.50
2019-02-21T03:49:36.585Z,17.27
2019-02-21T03:52:07.359Z,18.53
2019-02-21T03:54:37.899Z,17.93
2019-02-21T03:57:08.620Z,18.00
2019-02-21T03:59:39.463Z,20.40
2019-02-21T04:02:11.961Z,19.17
2019-02-21T04:04:42.675Z,19.57
2019-02-21T04:07:13.412Z,19.67
2019-02-21T04:09:43.911Z,19.20
2019-02-21T04:12:14.783Z,19.57
2019-02-21T04:14:45.627Z,19.67
2019-02-21T04:17:16.448Z,20.20
2019-02-21T04:19:47.187Z,19.40
2019-02-21T04:22:18.016Z,20.23
2019-02-21T04:24:48.870Z,20.13
2019-02-21T04:27:19.821Z,21.30
2019-02-21T04:29:50.953Z,20.93
2019-02-21T04:32:21.677Z,20.23
2019-02-21T04:34:52.650Z,21.37
2019-02-21T04:37:23.446Z,20.47
2019-02-21T04:39:54.193Z,22.17
2019-02-21T04:42:24.963Z,21.67
2019-02-21T04:44:56.207Z,21.67
2019-02-21T04:47:27.156Z,22.93
2019-02-21T04:49:57.978Z,22.23
2019-02-21T04:52:28.809Z,21.17
2019-02-21T04:54:59.863Z,22.17
2019-02-21T04:57:30.677Z,22.50
2019-02-21T05:00:01.575Z,21.77
2019-02-21T05:02:32.351Z,22.33
2019-02-21T05:05:03.049Z,20.97
2019-02-21T05:07:33.852Z,21.97
2019-02-21T05:10:06.182Z,23.03
2019-02-21T05:12:36.926Z,23.20
2019-02-21T05:15:07.861Z,23.27
2019-02-21T05:17:39.088Z,24.27
2019-02-21T05:20:09.536Z,23.50
2019-02-21T05:22:40.288Z,24.20
2019-02-21T05:25:11.114Z,24.57
2019-02-21T05:27:43.462Z,24.40
2019-02-21T05:30:15.869Z,24.77
2019-02-21T05:32:54.888Z,25.37
2019-02-21T05:35:26.992Z,26.23
2019-02-21T05:37:59.436Z,25.50
2019-02-21T05:40:34.569Z,25.57
2019-02-21T05:43:24.964Z,25.93
2019-02-21T05:46:12.572Z,26.30
2019-02-21T05:48:50.818Z,26.77
2019-02-21T05:51:23.170Z,26.07
2019-02-21T05:53:57.590Z,26.40
2019-02-21T05:56:30.079Z,25.57
2019-02-21T05:59:02.549Z,26.57
2019-02-21T06:01:43.606Z,26.80
2019-02-21T06:04:19.559Z,26.37
2019-02-21T06:07:09.882Z,26.70
2019-02-21T06:10:00.973Z,25.93
2019-02-21T06:12:34.174Z,26.77
2019-02-21T06:15:09.557Z,27.17
2019-02-21T06:17:42.604Z,26.43
2019-02-21T06:20:17.721Z,28.70
2019-02-21T06:23:04.036Z,26.83
2019-02-21T06:25:51.048Z,27.20
2019-02-21T06:28:16.934Z,26.37
2019-02-21T06:30:59.118Z,26.87
2019-02-21T06:33:30.836Z,27.40
2019-02-21T06:36:01.403Z,26.47
2019-02-21T06:38:33.642Z,25.93
2019-02-21T06:41:05.093Z,26.83
2019-02-21T06:43:35.582Z,27.90
2019-02-21T06:46:06.347Z,26.77
2019-02-21T06:48:37.603Z,27.60
2019-02-21T06:51:08.434Z,27.53
2019-02-21T06:53:39.575Z,26.53
2019-02-21T06:56:09.980Z,26.43
2019-02-21T06:58:42.193Z,27.93
2019-02-21T07:01:12.771Z,28.23
2019-02-21T07:03:43.678Z,27.10
2019-02-21T07:06:14.198Z,26.70
2019-02-21T07:08:45.889Z,27.07
2019-02-21T07:11:16.758Z,26.57
2019-02-21T07:13:47.616Z,26.50
2019-02-21T07:16:18.344Z,26.73
2019-02-21T07:18:49.199Z,25.97
2019-02-21T07:21:20.016Z,25.63
2019-02-21T07:23:50.819Z,25.40
2019-02-21T07:26:21.568Z,25.80
2019-02-21T07:28:52.300Z,25.13
2019-02-21T07:31:28.750Z,25.23
2019-02-21T07:33:55.229Z,24.90
2019-02-21T07:36:28.219Z,26.13
2019-02-21T07:39:13.879Z,24.73
2019-02-21T07:41:31.514Z,23.87
2019-02-21T07:44:11.613Z,24.97
2019-02-21T07:46:35.042Z,25.27
2019-02-21T07:49:05.869Z,24.33
2019-02-21T07:51:36.322Z,24.60
2019-02-21T07:54:07.135Z,24.10
2019-02-21T07:56:41.953Z,24.73
2019-02-21T07:59:12.263Z,23.83
2019-02-21T08:01:51.079Z,24.57
2019-02-21T08:04:22.161Z,25.27
2019-02-21T08:06:55.566Z,24.30
2019-02-21T08:09:34.078Z,25.13
2019-02-21T08:12:05.626Z,25.00
2019-02-21T08:14:36.449Z,25.23
2019-02-21T08:17:07.204Z,25.87
2019-02-21T08:19:39.246Z,25.63
2019-02-21T08:22:10.197Z,25.17
2019-02-21T08:24:41.038Z,26.20
2019-02-21T08:27:11.755Z,26.03
2019-02-21T08:29:42.281Z,25.87
2019-02-21T08:32:14.653Z,25.50
2019-02-21T08:34:48.285Z,25.73
2019-02-21T08:37:19.440Z,27.63
2019-02-21T08:39:50.391Z,26.40
2019-02-21T08:42:21.306Z,26.47
2019-02-21T08:44:54.779Z,25.53
2019-02-21T08:47:25.746Z,27.07
2019-02-21T08:49:56.579Z,26.43
2019-02-21T08:52:29.995Z,25.63
2019-02-21T08:55:00.650Z,25.63
2019-02-21T08:57:32.077Z,25.70
2019-02-21T09:00:02.835Z,25.97
2019-02-21T09:02:35.995Z,25.07
2019-02-21T09:05:12.701Z,27.27
2019-02-21T09:07:46.202Z,27.30
2019-02-21T09:10:16.379Z,25.87
2019-02-21T09:12:48.495Z,27.30
2019-02-21T09:15:19.790Z,27.53
2019-02-21T09:17:54.698Z,26.37
2019-02-21T09:20:25.577Z,25.53
2019-02-21T09:22:56.551Z,25.03
2019-02-21T09:25:27.444Z,26.20
2019-02-21T09:27:59.867Z,25.30
2019-02-21T09:30:30.938Z,25.00
2019-02-21T09:33:01.772Z,26.77
2019-02-21T09:35:32.727Z,26.00
2019-02-21T09:38:05.394Z,25.20
2019-02-21T09:40:43.521Z,26.43
2019-02-21T09:43:14.430Z,24.50
2019-02-21T09:45:45.184Z,26.23
2019-02-21T09:48:16.103Z,25.30
2019-02-21T09:50:46.493Z,23.17
2019-02-21T09:53:17.432Z,23.20
2019-02-21T09:55:50.300Z,23.63
2019-02-21T09:58:20.899Z,23.83
2019-02-21T10:00:51.864Z,23.30
2019-02-21T10:03:22.702Z,24.07
2019-02-21T10:05:53.748Z,29.07
2019-02-21T10:08:24.566Z,23.87
2019-02-21T10:10:55.913Z,22.47
2019-02-21T10:13:26.739Z,22.70
2019-02-21T10:15:57.433Z,24.27
2019-02-21T10:18:29.959Z,22.83
2019-02-21T10:21:00.991Z,23.77
2019-02-21T10:23:31.359Z,22.10
2019-02-21T10:26:02.162Z,23.83
2019-02-21T10:28:33.027Z,22.10
2019-02-21T10:31:04.089Z,22.97
2019-02-21T10:33:34.597Z,23.27
2019-02-21T10:36:05.463Z,21.67
2019-02-21T10:38:36.328Z,23.23
2019-02-21T10:41:08.855Z,27.03
2019-02-21T10:43:39.961Z,24.77
2019-02-21T10:46:10.897Z,22.17
2019-02-21T10:48:41.659Z,21.93
2019-02-21T10:51:12.567Z,22.93
2019-02-21T10:53:43.472Z,22.50
2019-02-21T10:56:15.865Z,20.53
2019-02-21T10:58:48.651Z,22.73
2019-02-21T11:01:20.007Z,21.43
2019-02-21T11:03:50.954Z,21.47
2019-02-21T11:06:22.939Z,20.23
2019-02-21T11:08:54.104Z,20.70
2019-02-21T11:11:25.394Z,20.50
2019-02-21T11:13:55.812Z,19.67
2019-02-21T11:16:26.605Z,21.03
2019-02-21T11:18:57.407Z,20.67
2019-02-21T11:21:27.822Z,19.60
2019-02-21T11:23:58.663Z,19.53
2019-02-21T11:26:29.395Z,19.40
2019-02-21T11:29:01.874Z,19.63
2019-02-21T11:31:34.160Z,19.27
2019-02-21T11:34:05.177Z,18.03
2019-02-21T11:36:36.634Z,19.47
2019-02-21T11:39:07.772Z,18.73
2019-02-21T11:41:39.062Z,17.93
2019-02-21T11:44:09.544Z,17.90
2019-02-21T11:46:40.507Z,18.07
2019-02-21T11:49:11.339Z,18.33
2019-02-21T11:51:42.066Z,18.27
2019-02-21T11:54:15.898Z,17.73
2019-02-21T11:56:45.580Z,16.37
2019-02-21T11:59:16.425Z,16.73
2019-02-21T12:01:46.876Z,17.43
2019-02-21T12:04:17.682Z,17.63
2019-02-21T12:06:48.414Z,16.87
2019-02-21T12:09:18.900Z,16.63
2019-02-21T12:11:49.429Z,15.70
2019-02-21T12:14:19.886Z,15.93
2019-02-21T12:16:50.736Z,15.83
2019-02-21T12:19:21.169Z,14.83
2019-02-21T12:21:59.164Z,14.90
2019-02-21T12:24:27.551Z,15.93
2019-02-21T12:26:58.315Z,14.90
2019-02-21T12:29:29.131Z,13.47
2019-02-21T12:31:59.991Z,13.43
2019-02-21T12:34:30.728Z,12.37
2019-02-21T12:37:01.565Z,13.33
2019-02-21T12:39:32.388Z,13.77
2019-02-21T12:42:03.414Z,12.57
2019-02-21T12:44:34.264Z,13.70
2019-02-21T12:47:05.516Z,13.33
2019-02-21T12:49:36.369Z,13.47
2019-02-21T12:52:06.874Z,12.23
2019-02-21T12:54:37.616Z,12.23
2019-02-21T12:57:08.547Z,11.77
2019-02-21T12:59:38.968Z,11.50
2019-02-21T13:02:09.824Z,11.90
2019-02-21T13:04:40.640Z,11.77
2019-02-21T13:07:11.422Z,11.37
2019-02-21T13:09:41.902Z,10.47
2019-02-21T13:12:16.334Z,9.60
2019-02-21T13:14:47.171Z,10.47
2019-02-21T13:17:18.146Z,9.83
2019-02-21T13:19:48.935Z,9.63
2019-02-21T13:22:19.992Z,9.30
2019-02-21T13:24:50.391Z,9.97
2019-02-21T13:27:21.404Z,9.30
2019-02-21T13:29:54.523Z,10.63
2019-02-21T13:32:24.856Z,9.23
2019-02-21T13:34:56.908Z,9.37
2019-02-21T13:37:29.308Z,9.17
2019-02-21T13:40:00.732Z,9.30
2019-02-21T13:42:33.566Z,10.50
2019-02-21T13:45:05.932Z,9.97
2019-02-21T13:47:39.117Z,9.90
2019-02-21T13:50:12.626Z,10.60
2019-02-21T13:52:43.148Z,11.07
2019-02-21T13:55:14.079Z,10.40
2019-02-21T13:57:44.800Z,10.40
2019-02-21T14:00:20.755Z,10.63
2019-02-21T14:02:51.497Z,10.90
2019-02-21T14:05:22.529Z,10.70
2019-02-21T14:07:53.284Z,10.57
2019-02-21T14:10:24.111Z,11.07
2019-02-21T14:12:55.029Z,10.53
2019-02-21T14:15:27.801Z,10.00
2019-02-21T14:17:58.663Z,10.50
2019-02-21T14:20:29.505Z,11.17
2019-02-21T14:23:00.366Z,11.37
2019-02-21T14:25:40.251Z,11.83
2019-02-21T14:28:03.671Z,11.83
2019-02-21T14:30:35.299Z,11.87
2019-02-21T14:33:06.031Z,13.23
2019-02-21T14:35:42.175Z,13.47
2019-02-21T14:38:13.031Z,13.30
2019-02-21T14:40:43.968Z,14.33
2019-02-21T14:43:17.041Z,13.43
2019-02-21T14:45:47.020Z,13.90
2019-02-21T14:48:21.289Z,12.90
2019-02-21T14:50:55.609Z,13.87
2019-02-21T14:53:26.366Z,13.43
2019-02-21T14:55:57.276Z,14.27
2019-02-21T14:58:28.121Z,13.30
2019-02-21T15:00:59.057Z,13.40
2019-02-21T15:03:29.530Z,13.80
2019-02-21T15:06:00.347Z,14.17
2019-02-21T15:08:30.803Z,14.03
2019-02-21T15:11:08.380Z,13.73
2019-02-21T15:13:33.745Z,12.87
2019-02-21T15:16:04.483Z,12.90
2019-02-21T15:18:35.315Z,12.73
2019-02-21T15:21:08.132Z,12.20
2019-02-21T15:23:39.032Z,12.70
2019-02-21T15:26:09.893Z,12.50
2019-02-21T15:28:40.849Z,12.93
2019-02-21T15:31:11.683Z,12.33
2019-02-21T15:33:42.591Z,13.17
2019-02-21T15:36:14.846Z,12.20
2019-02-21T15:38:47.980Z,12.23
2019-02-21T15:41:18.686Z,12.57
2019-02-21T15:43:49.550Z,11.50
2019-02-21T15:46:20.339Z,11.30
2019-02-21T15:48:55.942Z,12.57
2019-02-21T15:51:26.729Z,11.90
2019-02-21T15:53:57.480Z,11.53
2019-02-21T15:56:31.377Z,12.23
2019-02-21T15:59:02.794Z,12.00
2019-02-21T16:01:33.565Z,11.87
2019-02-21T16:04:03.999Z,12.27
2019-02-21T16:06:34.724Z,11.37
2019-02-21T16:09:15.963Z,13.10
2019-02-21T16:11:39.800Z,11.43
2019-02-21T16:14:11.774Z,12.17
2019-02-21T16:16:42.602Z,11.87
2019-02-21T16:19:13.439Z,11.77
2019-02-21T16:21:44.424Z,12.37
2019-02-21T16:24:15.197Z,11.33
2019-02-21T16:26:46.792Z,12.07
2019-02-21T16:29:18.119Z,12.30
2019-02-21T16:31:48.696Z,12.07
2019-02-21T16:34:19.119Z,12.37
2019-02-21T16:36:49.908Z,12.63
2019-02-21T16:39:23.557Z,13.33
2019-02-21T16:41:53.204Z,12.33
2019-02-21T16:44:23.940Z,11.90
2019-02-21T16:46:54.673Z,12.47
2019-02-21T16:49:25.501Z,12.63
2019-02-21T16:51:57.917Z,12.30
2019-02-21T16:54:28.351Z,11.83
2019-02-21T16:56:59.170Z,13.10
2019-02-21T16:59:32.810Z,12.53
2019-02-21T17:02:03.711Z,12.70
2019-02-21T17:04:34.211Z,12.43
2019-02-21T17:07:13.360Z,12.67
2019-02-21T17:09:40.145Z,11.77
2019-02-21T17:12:10.942Z,11.97
2019-02-21T17:14:41.902Z,11.73
2019-02-21T17:17:12.794Z,11.57
2019-02-21T17:19:43.546Z,12.27
2019-02-21T17:22:14.477Z,11.70
2019-02-21T17:24:45.430Z,11.80
2019-02-21T17:27:16.270Z,11.87
2019-02-21T17:29:47.141Z,11.90
2019-02-21T17:32:18.032Z,12.17
2019-02-21T17:34:48.878Z,11.87
2019-02-21T17:37:24.963Z,13.07
2019-02-21T17:39:54.536Z,12.53
2019-02-21T17:42:25.391Z,12.77
2019-02-21T17:44:56.227Z,12.10
2019-02-21T17:47:26.735Z,12.77
2019-02-21T17:49:57.587Z,13.70
2019-02-21T17:52:28.435Z,14.13
2019-02-21T17:54:59.260Z,14.40
2019-02-21T17:57:30.186Z,15.83
2019-02-21T18:00:00.944Z,15.97
2019-02-21T18:02:31.777Z,15.83
2019-02-21T18:05:02.554Z,16.37
2019-02-21T18:07:36.428Z,16.73
2019-02-21T18:10:09.000Z,17.97
2019-02-21T18:12:39.935Z,18.97
2019-02-21T18:15:13.421Z,20.73
2019-02-21T18:17:44.539Z,20.03
2019-02-21T18:20:16.476Z,21.97
2019-02-21T18:22:47.373Z,22.37
2019-02-21T18:25:21.283Z,22.60
2019-02-21T18:27:51.764Z,24.80
2019-02-21T18:30:22.570Z,24.93
2019-02-21T18:32:53.388Z,24.20
2019-02-21T18:35:24.222Z,26.37
2019-02-21T18:37:55.504Z,25.70
2019-02-21T18:40:27.470Z,24.83
2019-02-21T18:42:58.264Z,24.97
2019-02-21T18:45:30.428Z,26.40
2019-02-21T18:48:00.942Z,26.47
2019-02-21T18:50:38.279Z,26.90
2019-02-21T18:53:04.153Z,28.70
2019-02-21T18:55:34.745Z,27.97
2019-02-21T18:58:05.545Z,29.60
2019-02-21T19:00:36.472Z,29.73
2019-02-21T19:03:07.319Z,30.23
2019-02-21T19:05:38.594Z,30.10
2019-02-21T19:08:09.418Z,30.83
2019-02-21T19:10:39.951Z,32.37
2019-02-21T19:13:10.851Z,30.93
2019-02-21T19:15:41.600Z,32.37
2019-02-21T19:18:12.423Z,31.40
2019-02-21T19:20:44.807Z,32.77
2019-02-21T19:23:17.268Z,32.53
2019-02-21T19:25:48.272Z,33.80
2019-02-21T19:28:18.927Z,32.17
2019-02-21T19:30:52.863Z,33.17
2019-02-21T19:33:27.245Z,34.70
2019-02-21T19:36:00.078Z,33.60
2019-02-21T19:38:33.578Z,33.63
2019-02-21T19:41:05.835Z,36.17
2019-02-21T19:43:37.027Z,34.47
2019-02-21T19:46:07.813Z,36.07
2019-02-21T19:48:38.571Z,36.97
2019-02-21T19:51:10.376Z,36.53
2019-02-21T19:53:44.130Z,37.03
2019-02-21T19:56:14.959Z,38.30
2019-02-21T19:58:45.883Z,37.80
2019-02-21T20:01:16.985Z,36.53
2019-02-21T20:03:47.908Z,41.17
2019-02-21T20:06:18.839Z,39.13
2019-02-21T20:08:50.689Z,38.93
2019-02-21T20:11:43.370Z,38.10
2019-02-21T20:14:14.324Z,39.37
2019-02-21T20:16:58.234Z,38.27
2019-02-21T20:19:30.993Z,39.17
2019-02-21T20:22:21.677Z,38.93
2019-02-21T20:24:52.742Z,39.93
2019-02-21T20:27:24.591Z,40.43
2019-02-21T20:32:59.747Z,41.93
2019-02-21T20:35:32.952Z,39.53
2019-02-21T20:38:03.894Z,41.77
2019-02-21T20:40:34.830Z,40.20
2019-02-21T20:43:06.040Z,41.40
2019-02-21T20:45:53.552Z,41.10
2019-02-21T20:48:21.559Z,42.27
2019-02-21T20:50:56.810Z,40.57
2019-02-21T20:53:27.767Z,41.77
2019-02-21T20:55:58.893Z,41.37
2019-02-21T20:58:29.404Z,41.13
2019-02-21T21:01:00.775Z,41.20
2019-02-21T21:03:31.698Z,40.23
2019-02-21T21:06:02.976Z,40.97
2019-02-21T21:08:42.721Z,40.10
2019-02-21T21:11:07.069Z,40.00
2019-02-21T21:13:37.816Z,39.47
2019-02-21T21:16:08.398Z,39.40
2019-02-21T21:18:42.958Z,39.60
2019-02-21T21:21:13.495Z,40.20
2019-02-21T21:23:44.339Z,39.40
2019-02-21T21:26:15.480Z,38.43
2019-02-21T21:28:49.524Z,39.73
2019-02-21T21:31:20.420Z,38.50
2019-02-21T21:33:51.158Z,39.87
2019-02-21T21:36:22.123Z,40.10
2019-02-21T21:38:54.339Z,40.30
2019-02-21T21:41:27.117Z,39.37
2019-02-21T21:43:59.603Z,40.47
2019-02-21T21:46:31.700Z,39.10
2019-02-21T21:49:04.276Z,39.40
2019-02-21T21:51:35.282Z,40.33
2019-02-21T21:54:06.021Z,37.83
2019-02-21T21:56:36.826Z,39.30
2019-02-21T21:59:11.002Z,38.83
2019-02-21T22:01:42.122Z,39.53
2019-02-21T22:04:12.592Z,40.40
2019-02-21T22:06:45.761Z,40.33
2019-02-21T22:09:16.594Z,39.80
2019-02-21T22:11:47.734Z,40.47
2019-02-21T22:14:18.678Z,39.87
2019-02-21T22:16:52.652Z,40.63
2019-02-21T22:19:23.117Z,41.27
2019-02-21T22:21:53.974Z,38.97
2019-02-21T22:24:24.813Z,37.83
2019-02-21T22:26:57.740Z,37.73
2019-02-21T22:29:28.538Z,37.97
2019-02-21T22:31:59.654Z,37.83
2019-02-21T22:34:31.161Z,38.43
2019-02-21T22:37:03.785Z,38.00
2019-02-21T22:39:34.492Z,37.23
2019-02-21T22:42:05.520Z,37.30
2019-02-21T22:44:36.294Z,38.27
2019-02-21T22:47:08.636Z,34.47
2019-02-21T22:49:41.147Z,33.80
2019-02-21T22:52:11.986Z,34.57
2019-02-21T22:54:42.821Z,36.03
2019-02-21T22:57:15.968Z,33.30
2019-02-21T22:59:46.823Z,34.97
2019-02-21T23:02:20.854Z,34.50
2019-02-21T23:04:57.841Z,33.13
2019-02-21T23:07:31.379Z,33.20
2019-02-21T23:10:02.177Z,31.43
2019-02-21T23:12:33.201Z,32.27
2019-02-21T23:15:05.522Z,30.23
2019-02-21T23:17:40.525Z,30.17
2019-02-21T23:20:11.663Z,30.83
2019-02-21T23:22:42.640Z,29.87
2019-02-21T23:25:13.522Z,29.50
2019-02-21T23:27:44.395Z,28.80
2019-02-21T23:30:17.427Z,29.27
2019-02-21T23:32:49.712Z,30.93
2019-02-21T23:35:23.264Z,29.53
2019-02-21T23:37:53.630Z,29.10
2019-02-21T23:40:24.601Z,28.43
2019-02-21T23:42:55.421Z,29.10
2019-02-21T23:45:26.254Z,27.03
2019-02-21T23:47:57.007Z,26.97
2019-02-21T23:50:27.841Z,26.63
2019-02-21T23:52:58.668Z,27.17
2019-02-21T23:55:29.517Z,27.27
2019-02-21T23:57:59.978Z,25.13
